createdAt,value
2022-09-22T00:00:16.693Z,11.54
2022-09-22T00:05:18.493Z,11.54
2022-09-22T00:10:21.685Z,11.51
2022-09-22T00:15:23.512Z,11.48
2022-09-22T00:20:25.414Z,11.45
2022-09-22T00:25:27.467Z,11.45
2022-09-22T00:30:31.335Z,11.43
2022-09-22T00:35:33.176Z,11.42
2022-09-22T00:40:35.993Z,11.39
2022-09-22T00:45:37.967Z,11.35
2022-09-22T00:50:40.664Z,11.33
2022-09-22T00:55:59.562Z,11.31
2022-09-22T01:01:02.367Z,11.30
2022-09-22T01:06:06.906Z,11.27
2022-09-22T01:11:08.726Z,11.26
2022-09-22T01:16:34.829Z,11.25
2022-09-22T01:22:14.164Z,11.24
2022-09-22T01:27:27.696Z,11.22
2022-09-22T01:33:02.782Z,11.18
2022-09-22T01:38:07.647Z,11.16
2022-09-22T01:43:36.336Z,11.12
2022-09-22T01:48:42.725Z,11.09
2022-09-22T01:53:52.622Z,11.07
2022-09-22T01:58:57.893Z,11.03
2022-09-22T02:04:09.943Z,11.00
2022-09-22T02:09:17.114Z,10.94
2022-09-22T02:14:19.286Z,10.90
2022-09-22T02:19:25.281Z,10.86
2022-09-22T02:24:34.623Z,10.81
2022-09-22T02:29:40.946Z,10.76
2022-09-22T02:34:45.909Z,10.71
2022-09-22T02:39:50.565Z,10.67
2022-09-22T02:45:12.626Z,10.62
2022-09-22T02:50:19.601Z,10.59
2022-09-22T02:55:21.501Z,10.57
2022-09-22T03:00:23.287Z,10.56
2022-09-22T03:05:25.518Z,10.55
2022-09-22T03:10:27.420Z,10.51
2022-09-22T03:15:29.994Z,10.51
2022-09-22T03:20:31.775Z,10.48
2022-09-22T03:25:33.586Z,10.45
2022-09-22T03:30:37.376Z,10.43
2022-09-22T03:35:39.306Z,10.41
2022-09-22T03:40:41.644Z,10.40
2022-09-22T03:45:43.797Z,10.38
2022-09-22T03:50:45.677Z,10.37
2022-09-22T03:55:47.495Z,10.37
2022-09-22T04:00:49.978Z,10.35
2022-09-22T04:05:52.007Z,10.30
2022-09-22T04:10:54.271Z,10.27
2022-09-22T04:15:56.407Z,10.24
2022-09-22T04:20:59.313Z,10.23
2022-09-22T04:26:02.182Z,10.22
2022-09-22T04:31:04.204Z,10.20
2022-09-22T04:36:06.371Z,10.19
2022-09-22T04:41:08.302Z,10.19
2022-09-22T04:46:10.165Z,10.17
2022-09-22T04:51:12.094Z,10.15
2022-09-22T04:56:14.104Z,10.13
2022-09-22T05:01:15.998Z,10.11
2022-09-22T05:06:17.897Z,10.07
2022-09-22T05:11:24.817Z,10.06
2022-09-22T05:16:26.797Z,10.07
2022-09-22T05:21:28.963Z,10.10
2022-09-22T05:26:33.533Z,10.14
2022-09-22T05:31:35.466Z,10.19
2022-09-22T05:36:37.565Z,10.27
2022-09-22T05:41:39.981Z,10.33
2022-09-22T05:46:42.434Z,10.40
2022-09-22T05:51:44.426Z,10.49
2022-09-22T05:56:46.377Z,10.61
2022-09-22T06:01:48.601Z,10.72
2022-09-22T06:06:50.483Z,10.80
2022-09-22T06:11:53.543Z,10.81
2022-09-22T06:16:55.963Z,10.81
2022-09-22T06:21:57.690Z,10.82
2022-09-22T06:26:59.451Z,10.86
2022-09-22T06:32:02.112Z,10.91
2022-09-22T06:37:10.134Z,10.99
2022-09-22T06:42:12.477Z,11.11
2022-09-22T06:47:14.656Z,11.14
2022-09-22T06:52:16.454Z,11.19
2022-09-22T06:57:19.202Z,11.26
2022-09-22T07:02:28.506Z,11.38
2022-09-22T07:07:32.249Z,11.47
2022-09-22T07:12:34.580Z,11.55
2022-09-22T07:17:37.025Z,11.65
2022-09-22T07:22:39.376Z,11.73
2022-09-22T07:27:41.203Z,11.79
2022-09-22T07:32:43.007Z,11.86
2022-09-22T07:37:46.722Z,11.96
2022-09-22T07:42:49.820Z,12.07
2022-09-22T07:48:10.332Z,12.16
2022-09-22T07:53:12.156Z,12.27
2022-09-22T07:58:17.247Z,12.42
2022-09-22T08:03:19.420Z,12.54
2022-09-22T08:08:21.429Z,12.63
2022-09-22T08:13:23.788Z,12.77
2022-09-22T08:18:26.200Z,12.88
2022-09-22T08:23:31.481Z,12.84
2022-09-22T08:28:33.825Z,12.84
2022-09-22T08:33:35.828Z,12.86
2022-09-22T08:38:39.103Z,12.92
2022-09-22T08:43:47.097Z,12.94
2022-09-22T08:49:09.227Z,13.04
2022-09-22T08:54:11.124Z,13.21
2022-09-22T08:59:23.187Z,13.32
2022-09-22T09:04:42.680Z,13.27
2022-09-22T09:09:58.283Z,13.25
2022-09-22T09:15:25.074Z,13.11
2022-09-22T09:20:39.099Z,13.11
2022-09-22T09:25:42.759Z,13.13
2022-09-22T09:30:54.338Z,13.28
2022-09-22T09:35:56.434Z,13.34
2022-09-22T09:41:18.142Z,13.42
2022-09-22T09:46:44.738Z,13.42
2022-09-22T09:51:57.117Z,13.53
2022-09-22T09:57:17.120Z,13.80
2022-09-22T10:02:28.330Z,14.03
2022-09-22T10:07:45.200Z,14.11
2022-09-22T10:12:47.178Z,14.16
2022-09-22T10:17:49.372Z,14.32
2022-09-22T10:22:53.904Z,14.41
2022-09-22T10:28:13.300Z,14.47
2022-09-22T10:33:20.516Z,14.48
2022-09-22T10:38:29.439Z,14.53
2022-09-22T10:44:15.494Z,14.65
2022-09-22T10:49:46.933Z,14.67
2022-09-22T10:54:54.676Z,14.62
2022-09-22T11:00:26.232Z,14.69
2022-09-22T11:06:06.921Z,14.85
2022-09-22T11:11:48.162Z,14.98
2022-09-22T11:17:00.432Z,15.06
2022-09-22T11:22:39.844Z,14.93
2022-09-22T11:27:56.893Z,14.77
2022-09-22T11:33:16.863Z,14.85
2022-09-22T11:38:59.914Z,14.79
2022-09-22T11:44:12.052Z,14.69
2022-09-22T11:49:46.042Z,14.69
2022-09-22T11:55:26.675Z,14.70
2022-09-22T12:00:36.065Z,14.74
2022-09-22T12:05:48.613Z,14.76
2022-09-22T12:10:52.046Z,14.82
2022-09-22T12:16:15.370Z,14.99
2022-09-22T12:21:32.497Z,14.99
2022-09-22T12:26:38.044Z,14.85
2022-09-22T12:31:41.854Z,14.76
2022-09-22T12:36:44.333Z,14.73
2022-09-22T12:41:52.675Z,14.74
2022-09-22T12:47:06.821Z,14.75
2022-09-22T12:52:41.774Z,14.71
2022-09-22T12:57:48.897Z,14.72
2022-09-22T13:02:51.998Z,14.69
2022-09-22T13:07:55.885Z,14.56
2022-09-22T13:13:03.836Z,14.51
2022-09-22T13:18:35.703Z,14.49
2022-09-22T13:23:38.116Z,14.49
2022-09-22T13:28:40.648Z,14.54
2022-09-22T13:33:43.067Z,14.68
2022-09-22T13:38:51.090Z,14.79
2022-09-22T13:44:02.922Z,14.78
2022-09-22T13:49:08.864Z,14.72
2022-09-22T13:54:19.415Z,14.72
2022-09-22T13:59:21.876Z,14.78
2022-09-22T14:04:26.705Z,14.84
2022-09-22T14:09:30.343Z,14.82
2022-09-22T14:14:32.788Z,14.80
2022-09-22T14:19:43.085Z,14.80
2022-09-22T14:24:52.302Z,14.78
2022-09-22T14:29:55.872Z,14.76
2022-09-22T14:34:59.430Z,14.81
2022-09-22T14:40:04.879Z,14.90
2022-09-22T14:45:09.780Z,15.02
2022-09-22T14:50:19.241Z,15.02
2022-09-22T14:55:26.958Z,14.98
2022-09-22T15:00:48.396Z,14.89
2022-09-22T15:05:50.485Z,14.83
2022-09-22T15:10:56.204Z,14.85
2022-09-22T15:15:58.659Z,14.88
2022-09-22T15:21:11.163Z,14.88
2022-09-22T15:26:25.123Z,14.86
2022-09-22T15:31:28.402Z,14.83
2022-09-22T15:36:32.993Z,14.85
2022-09-22T15:41:35.112Z,14.89
2022-09-22T15:46:38.124Z,14.87
2022-09-22T15:51:39.923Z,14.82
2022-09-22T15:56:43.315Z,14.75
2022-09-22T16:01:46.485Z,14.64
2022-09-22T16:06:57.092Z,14.49
2022-09-22T16:11:59.746Z,14.40
2022-09-22T16:17:01.568Z,14.33
2022-09-22T16:22:03.423Z,14.29
2022-09-22T16:27:07.480Z,14.22
2022-09-22T16:32:11.094Z,14.13
2022-09-22T16:37:12.942Z,14.04
2022-09-22T16:42:21.549Z,13.95
2022-09-22T16:47:25.972Z,13.83
2022-09-22T16:52:32.016Z,13.75
2022-09-22T16:57:33.952Z,13.67
2022-09-22T17:02:36.038Z,13.59
2022-09-22T17:07:37.917Z,13.51
2022-09-22T17:12:42.968Z,13.43
2022-09-22T17:17:44.852Z,13.35
2022-09-22T17:22:47.748Z,13.27
2022-09-22T17:27:49.541Z,13.19
2022-09-22T17:32:51.378Z,13.13
2022-09-22T17:37:53.488Z,13.06
2022-09-22T17:42:57.267Z,13.01
2022-09-22T17:48:17.382Z,12.93
2022-09-22T17:53:38.210Z,12.86
2022-09-22T17:58:40.014Z,12.81
2022-09-22T18:03:46.197Z,12.75
2022-09-22T18:08:49.089Z,12.70
2022-09-22T18:13:51.147Z,12.64
2022-09-22T18:18:58.474Z,12.58
2022-09-22T18:24:01.158Z,12.54
2022-09-22T18:29:02.975Z,12.49
2022-09-22T18:34:07.950Z,12.45
2022-09-22T18:39:10.082Z,12.39
2022-09-22T18:44:13.443Z,12.33
2022-09-22T18:49:16.740Z,12.30
2022-09-22T18:54:21.462Z,12.25
2022-09-22T18:59:25.896Z,12.21
2022-09-22T19:04:27.937Z,12.16
2022-09-22T19:09:29.813Z,12.12
2022-09-22T19:14:37.042Z,12.09
2022-09-22T19:19:42.337Z,12.05
2022-09-22T19:24:47.873Z,11.99
2022-09-22T19:29:50.758Z,11.94
2022-09-22T19:34:54.926Z,11.88
2022-09-22T19:39:56.985Z,11.85
2022-09-22T19:44:59.261Z,11.81
2022-09-22T19:50:00.998Z,11.77
2022-09-22T19:55:02.829Z,11.75
2022-09-22T20:00:06.007Z,11.71
2022-09-22T20:05:22.447Z,11.66
2022-09-22T20:10:25.026Z,11.62
2022-09-22T20:15:27.690Z,11.59
2022-09-22T20:20:32.203Z,11.55
2022-09-22T20:25:34.108Z,11.51
2022-09-22T20:30:36.045Z,11.46
2022-09-22T20:35:38.278Z,11.42
2022-09-22T20:40:40.337Z,11.39
2022-09-22T20:45:43.533Z,11.36
2022-09-22T20:50:55.651Z,11.32
2022-09-22T20:56:01.302Z,11.28
2022-09-22T21:01:04.311Z,11.24
2022-09-22T21:06:09.008Z,11.20
2022-09-22T21:11:16.145Z,11.16
2022-09-22T21:16:17.954Z,11.11
2022-09-22T21:21:22.472Z,11.10
2022-09-22T21:26:24.403Z,11.05
2022-09-22T21:31:27.078Z,11.01
2022-09-22T21:36:29.240Z,10.98
2022-09-22T21:41:31.825Z,10.95
2022-09-22T21:46:37.324Z,10.93
2022-09-22T21:51:42.175Z,10.86
2022-09-22T21:56:44.771Z,10.83
2022-09-22T22:01:46.709Z,10.79
2022-09-22T22:06:48.707Z,10.77
2022-09-22T22:11:56.606Z,10.74
2022-09-22T22:16:58.667Z,10.71
2022-09-22T22:22:00.547Z,10.70
2022-09-22T22:27:06.424Z,10.67
2022-09-22T22:32:10.667Z,10.66
2022-09-22T22:37:12.615Z,10.64
2022-09-22T22:42:14.360Z,10.63
2022-09-22T22:47:17.231Z,10.60
2022-09-22T22:52:20.106Z,10.59
2022-09-22T22:57:21.945Z,10.56
2022-09-22T23:02:23.827Z,10.54
2022-09-22T23:07:25.821Z,10.49
2022-09-22T23:12:27.671Z,10.48
2022-09-22T23:17:29.563Z,10.43
2022-09-22T23:22:31.784Z,10.41
2022-09-22T23:27:33.536Z,10.38
2022-09-22T23:32:35.423Z,10.36
2022-09-22T23:37:37.257Z,10.33
2022-09-22T23:42:39.307Z,10.29
2022-09-22T23:47:41.666Z,10.24
2022-09-22T23:52:43.532Z,10.23
2022-09-22T23:57:45.703Z,10.20
